sensor_id;sensor_type;location;lat;lon;timestamp;pressure;altitude;pressure_sealevel;temperature;humidity
74403;BME280;62837;51.082;13.744;2023-07-30T00:00:21;99732.71;;;19.63;69.17
74403;BME280;62837;51.082;13.744;2023-07-30T00:02:52;99729.50;;;19.63;68.97
74403;BME280;62837;51.082;13.744;2023-07-30T00:05:23;99726.06;;;19.59;68.88
74403;BME280;62837;51.082;13.744;2023-07-30T00:07:54;99728.41;;;19.65;68.90
74403;BME280;62837;51.082;13.744;2023-07-30T00:10:25;99726.69;;;19.74;68.72
74403;BME280;62837;51.082;13.744;2023-07-30T00:12:56;99723.59;;;19.84;68.44
74403;BME280;62837;51.082;13.744;2023-07-30T00:15:28;99722.54;;;19.93;68.20
74403;BME280;62837;51.082;13.744;2023-07-30T00:17:59;99719.77;;;19.96;67.91
74403;BME280;62837;51.082;13.744;2023-07-30T00:20:30;99723.77;;;20.00;67.75
74403;BME280;62837;51.082;13.744;2023-07-30T00:23:01;99726.21;;;20.01;67.61
74403;BME280;62837;51.082;13.744;2023-07-30T00:25:32;99723.17;;;20.05;67.49
74403;BME280;62837;51.082;13.744;2023-07-30T00:28:04;99724.51;;;20.06;67.31
74403;BME280;62837;51.082;13.744;2023-07-30T00:30:35;99727.53;;;20.08;67.08
74403;BME280;62837;51.082;13.744;2023-07-30T00:33:06;99727.50;;;20.11;67.04
74403;BME280;62837;51.082;13.744;2023-07-30T00:35:38;99723.45;;;20.14;66.88
74403;BME280;62837;51.082;13.744;2023-07-30T00:38:09;99728.21;;;20.15;66.65
74403;BME280;62837;51.082;13.744;2023-07-30T00:40:42;99727.83;;;20.14;66.73
74403;BME280;62837;51.082;13.744;2023-07-30T00:43:13;99722.84;;;20.09;66.59
74403;BME280;62837;51.082;13.744;2023-07-30T00:45:45;99725.50;;;20.07;66.82
74403;BME280;62837;51.082;13.744;2023-07-30T00:48:17;99724.98;;;20.06;66.64
74403;BME280;62837;51.082;13.744;2023-07-30T00:50:48;99724.88;;;20.05;66.88
74403;BME280;62837;51.082;13.744;2023-07-30T00:53:20;99720.66;;;20.06;66.65
74403;BME280;62837;51.082;13.744;2023-07-30T00:55:52;99717.27;;;20.03;66.65
74403;BME280;62837;51.082;13.744;2023-07-30T00:58:24;99716.40;;;20.05;66.68
74403;BME280;62837;51.082;13.744;2023-07-30T01:00:56;99716.65;;;20.07;66.61
74403;BME280;62837;51.082;13.744;2023-07-30T01:03:28;99716.01;;;20.11;66.35
74403;BME280;62837;51.082;13.744;2023-07-30T01:05:59;99713.67;;;20.13;66.54
74403;BME280;62837;51.082;13.744;2023-07-30T01:08:30;99709.14;;;20.15;66.22
74403;BME280;62837;51.082;13.744;2023-07-30T01:11:02;99705.08;;;20.17;66.15
74403;BME280;62837;51.082;13.744;2023-07-30T01:13:34;99706.02;;;20.19;66.06
74403;BME280;62837;51.082;13.744;2023-07-30T01:16:06;99713.20;;;20.19;66.05
74403;BME280;62837;51.082;13.744;2023-07-30T01:18:36;99717.71;;;20.20;65.96
74403;BME280;62837;51.082;13.744;2023-07-30T01:21:08;99716.25;;;20.17;65.85
74403;BME280;62837;51.082;13.744;2023-07-30T01:23:39;99714.48;;;20.11;65.74
74403;BME280;62837;51.082;13.744;2023-07-30T01:26:12;99718.31;;;20.09;66.02
74403;BME280;62837;51.082;13.744;2023-07-30T01:28:51;99720.40;;;20.06;66.01
74403;BME280;62837;51.082;13.744;2023-07-30T01:31:26;99720.08;;;20.05;66.08
74403;BME280;62837;51.082;13.744;2023-07-30T01:34:00;99729.36;;;20.06;65.92
74403;BME280;62837;51.082;13.744;2023-07-30T01:36:33;99732.02;;;20.07;65.90
74403;BME280;62837;51.082;13.744;2023-07-30T01:39:06;99728.26;;;20.09;65.88
74403;BME280;62837;51.082;13.744;2023-07-30T01:41:39;99727.70;;;20.10;65.87
74403;BME280;62837;51.082;13.744;2023-07-30T01:44:10;99738.77;;;20.12;65.86
74403;BME280;62837;51.082;13.744;2023-07-30T01:46:41;99743.55;;;20.14;65.93
74403;BME280;62837;51.082;13.744;2023-07-30T01:49:12;99744.74;;;20.16;65.79
74403;BME280;62837;51.082;13.744;2023-07-30T01:51:43;99753.08;;;20.15;65.64
74403;BME280;62837;51.082;13.744;2023-07-30T01:54:15;99754.00;;;20.14;65.64
74403;BME280;62837;51.082;13.744;2023-07-30T01:56:47;99756.63;;;20.11;65.71
74403;BME280;62837;51.082;13.744;2023-07-30T01:59:18;99764.66;;;20.09;65.72
74403;BME280;62837;51.082;13.744;2023-07-30T02:01:49;99755.11;;;20.04;65.56
74403;BME280;62837;51.082;13.744;2023-07-30T02:04:20;99761.15;;;20.00;65.71
74403;BME280;62837;51.082;13.744;2023-07-30T02:06:51;99759.38;;;19.93;65.94
74403;BME280;62837;51.082;13.744;2023-07-30T02:09:22;99754.41;;;19.91;65.84
74403;BME280;62837;51.082;13.744;2023-07-30T02:11:53;99750.73;;;19.89;65.92
74403;BME280;62837;51.082;13.744;2023-07-30T02:14:24;99745.34;;;19.89;65.99
74403;BME280;62837;51.082;13.744;2023-07-30T02:16:56;99740.36;;;19.88;66.02
74403;BME280;62837;51.082;13.744;2023-07-30T02:19:27;99743.96;;;19.91;65.91
74403;BME280;62837;51.082;13.744;2023-07-30T02:21:59;99742.39;;;19.91;65.94
74403;BME280;62837;51.082;13.744;2023-07-30T02:24:30;99736.69;;;19.88;65.73
74403;BME280;62837;51.082;13.744;2023-07-30T02:27:01;99745.54;;;19.86;65.76
74403;BME280;62837;51.082;13.744;2023-07-30T02:29:32;99742.23;;;19.87;65.79
74403;BME280;62837;51.082;13.744;2023-07-30T02:32:06;99745.11;;;19.86;65.76
74403;BME280;62837;51.082;13.744;2023-07-30T02:34:37;99746.31;;;19.82;65.80
74403;BME280;62837;51.082;13.744;2023-07-30T02:37:08;99746.11;;;19.77;66.09
74403;BME280;62837;51.082;13.744;2023-07-30T02:39:40;99744.77;;;19.73;66.14
74403;BME280;62837;51.082;13.744;2023-07-30T02:42:10;99747.58;;;19.70;66.02
74403;BME280;62837;51.082;13.744;2023-07-30T02:44:41;99749.21;;;19.65;66.28
74403;BME280;62837;51.082;13.744;2023-07-30T02:47:12;99753.23;;;19.62;66.45
74403;BME280;62837;51.082;13.744;2023-07-30T02:49:43;99760.33;;;19.62;66.48
74403;BME280;62837;51.082;13.744;2023-07-30T02:52:14;99763.02;;;19.62;66.63
74403;BME280;62837;51.082;13.744;2023-07-30T02:54:45;99760.85;;;19.61;66.47
74403;BME280;62837;51.082;13.744;2023-07-30T02:57:16;99759.71;;;19.61;66.52
74403;BME280;62837;51.082;13.744;2023-07-30T02:59:47;99757.66;;;19.60;66.38
74403;BME280;62837;51.082;13.744;2023-07-30T03:02:19;99759.90;;;19.58;66.47
74403;BME280;62837;51.082;13.744;2023-07-30T03:04:50;99762.44;;;19.54;66.58
74403;BME280;62837;51.082;13.744;2023-07-30T03:07:25;99761.98;;;19.53;66.70
74403;BME280;62837;51.082;13.744;2023-07-30T03:09:56;99766.27;;;19.52;66.65
74403;BME280;62837;51.082;13.744;2023-07-30T03:12:27;99762.33;;;19.51;66.71
74403;BME280;62837;51.082;13.744;2023-07-30T03:14:58;99771.39;;;19.51;66.79
74403;BME280;62837;51.082;13.744;2023-07-30T03:17:30;99769.16;;;19.51;66.82
74403;BME280;62837;51.082;13.744;2023-07-30T03:20:01;99767.46;;;19.47;66.73
74403;BME280;62837;51.082;13.744;2023-07-30T03:22:32;99764.34;;;19.45;66.77
74403;BME280;62837;51.082;13.744;2023-07-30T03:25:04;99758.04;;;19.45;66.85
74403;BME280;62837;51.082;13.744;2023-07-30T03:27:36;99741.70;;;19.45;67.04
74403;BME280;62837;51.082;13.744;2023-07-30T03:30:08;99737.16;;;19.46;66.90
74403;BME280;62837;51.082;13.744;2023-07-30T03:32:40;99736.91;;;19.43;67.01
74403;BME280;62837;51.082;13.744;2023-07-30T03:35:12;99735.95;;;19.39;67.18
74403;BME280;62837;51.082;13.744;2023-07-30T03:37:43;99737.52;;;19.39;67.20
74403;BME280;62837;51.082;13.744;2023-07-30T03:40:14;99744.56;;;19.35;67.20
74403;BME280;62837;51.082;13.744;2023-07-30T03:42:45;99758.64;;;19.33;67.38
74403;BME280;62837;51.082;13.744;2023-07-30T03:45:17;99760.21;;;19.27;67.75
74403;BME280;62837;51.082;13.744;2023-07-30T03:47:48;99764.40;;;19.12;68.18
74403;BME280;62837;51.082;13.744;2023-07-30T03:50:19;99770.52;;;18.98;68.38
74403;BME280;62837;51.082;13.744;2023-07-30T03:52:50;99769.94;;;18.97;68.60
74403;BME280;62837;51.082;13.744;2023-07-30T03:55:22;99772.73;;;18.97;68.70
74403;BME280;62837;51.082;13.744;2023-07-30T03:57:53;99772.13;;;18.94;68.84
74403;BME280;62837;51.082;13.744;2023-07-30T04:00:26;99773.10;;;18.84;69.54
74403;BME280;62837;51.082;13.744;2023-07-30T04:02:59;99773.98;;;18.69;69.81
74403;BME280;62837;51.082;13.744;2023-07-30T04:05:30;99775.10;;;18.69;69.96
74403;BME280;62837;51.082;13.744;2023-07-30T04:08:02;99773.46;;;18.76;70.07
74403;BME280;62837;51.082;13.744;2023-07-30T04:10:33;99770.17;;;18.79;70.21
74403;BME280;62837;51.082;13.744;2023-07-30T04:13:04;99771.16;;;18.78;70.11
74403;BME280;62837;51.082;13.744;2023-07-30T04:15:37;99768.50;;;18.84;69.97
74403;BME280;62837;51.082;13.744;2023-07-30T04:18:08;99766.04;;;18.90;69.77
74403;BME280;62837;51.082;13.744;2023-07-30T04:20:40;99775.39;;;18.94;69.68
74403;BME280;62837;51.082;13.744;2023-07-30T04:23:11;99774.48;;;19.02;69.40
74403;BME280;62837;51.082;13.744;2023-07-30T04:25:42;99767.17;;;19.06;69.29
74403;BME280;62837;51.082;13.744;2023-07-30T04:28:14;99763.84;;;19.12;69.10
74403;BME280;62837;51.082;13.744;2023-07-30T04:30:45;99766.75;;;19.20;69.04
74403;BME280;62837;51.082;13.744;2023-07-30T04:33:17;99768.41;;;19.27;68.80
74403;BME280;62837;51.082;13.744;2023-07-30T04:35:48;99769.18;;;19.28;69.03
74403;BME280;62837;51.082;13.744;2023-07-30T04:38:19;99766.03;;;19.29;68.86
74403;BME280;62837;51.082;13.744;2023-07-30T04:40:51;99763.63;;;19.34;68.82
74403;BME280;62837;51.082;13.744;2023-07-30T04:43:22;99767.59;;;19.41;68.69
74403;BME280;62837;51.082;13.744;2023-07-30T04:45:58;99773.41;;;19.48;68.42
74403;BME280;62837;51.082;13.744;2023-07-30T04:48:30;99767.83;;;19.53;68.42
74403;BME280;62837;51.082;13.744;2023-07-30T04:51:02;99770.44;;;19.58;68.36
74403;BME280;62837;51.082;13.744;2023-07-30T04:53:34;99761.25;;;19.66;68.10
74403;BME280;62837;51.082;13.744;2023-07-30T04:56:05;99756.85;;;19.75;67.81
74403;BME280;62837;51.082;13.744;2023-07-30T04:58:36;99758.68;;;19.98;67.63
74403;BME280;62837;51.082;13.744;2023-07-30T05:01:07;99755.95;;;20.27;67.01
74403;BME280;62837;51.082;13.744;2023-07-30T05:03:38;99757.77;;;20.40;66.74
74403;BME280;62837;51.082;13.744;2023-07-30T05:06:10;99764.38;;;20.65;66.25
74403;BME280;62837;51.082;13.744;2023-07-30T05:08:41;99760.09;;;20.99;65.80
74403;BME280;62837;51.082;13.744;2023-07-30T05:11:12;99764.96;;;21.36;64.85
74403;BME280;62837;51.082;13.744;2023-07-30T05:13:43;99765.10;;;21.67;63.71
74403;BME280;62837;51.082;13.744;2023-07-30T05:16:14;99763.73;;;21.81;63.56
74403;BME280;62837;51.082;13.744;2023-07-30T05:18:46;99763.17;;;22.15;63.14
74403;BME280;62837;51.082;13.744;2023-07-30T05:21:17;99761.69;;;22.46;62.15
74403;BME280;62837;51.082;13.744;2023-07-30T05:23:48;99765.92;;;22.67;61.66
74403;BME280;62837;51.082;13.744;2023-07-30T05:26:31;99753.75;;;22.77;61.15
74403;BME280;62837;51.082;13.744;2023-07-30T05:29:02;99756.41;;;22.91;60.54
74403;BME280;62837;51.082;13.744;2023-07-30T05:31:33;99759.42;;;22.92;60.08
74403;BME280;62837;51.082;13.744;2023-07-30T05:34:06;99770.00;;;22.87;60.02
74403;BME280;62837;51.082;13.744;2023-07-30T05:36:37;99776.03;;;22.80;59.81
74403;BME280;62837;51.082;13.744;2023-07-30T05:39:08;99776.52;;;22.67;59.73
74403;BME280;62837;51.082;13.744;2023-07-30T05:41:39;99775.58;;;22.55;59.95
74403;BME280;62837;51.082;13.744;2023-07-30T05:44:10;99779.43;;;22.43;60.00
74403;BME280;62837;51.082;13.744;2023-07-30T05:46:41;99785.50;;;22.32;60.42
74403;BME280;62837;51.082;13.744;2023-07-30T05:49:12;99786.21;;;22.27;60.50
74403;BME280;62837;51.082;13.744;2023-07-30T05:51:44;99789.48;;;22.14;60.64
74403;BME280;62837;51.082;13.744;2023-07-30T05:54:17;99795.45;;;21.87;61.17
74403;BME280;62837;51.082;13.744;2023-07-30T05:56:48;99798.94;;;21.70;61.75
74403;BME280;62837;51.082;13.744;2023-07-30T05:59:22;99795.90;;;21.45;61.90
74403;BME280;62837;51.082;13.744;2023-07-30T06:01:55;99800.62;;;21.34;62.48
74403;BME280;62837;51.082;13.744;2023-07-30T06:04:26;99800.88;;;21.30;62.80
74403;BME280;62837;51.082;13.744;2023-07-30T06:06:58;99802.71;;;21.32;62.98
74403;BME280;62837;51.082;13.744;2023-07-30T06:09:30;99802.17;;;21.37;62.89
74403;BME280;62837;51.082;13.744;2023-07-30T06:12:01;99798.20;;;21.38;62.96
74403;BME280;62837;51.082;13.744;2023-07-30T06:14:33;99797.80;;;21.33;62.80
74403;BME280;62837;51.082;13.744;2023-07-30T06:17:05;99796.94;;;21.25;63.04
74403;BME280;62837;51.082;13.744;2023-07-30T06:19:36;99793.13;;;21.21;63.14
74403;BME280;62837;51.082;13.744;2023-07-30T06:22:08;99796.27;;;21.18;63.33
74403;BME280;62837;51.082;13.744;2023-07-30T06:24:39;99799.73;;;21.16;63.50
74403;BME280;62837;51.082;13.744;2023-07-30T06:27:10;99802.21;;;21.14;63.79
74403;BME280;62837;51.082;13.744;2023-07-30T06:29:42;99804.90;;;21.16;63.99
74403;BME280;62837;51.082;13.744;2023-07-30T06:32:13;99804.25;;;21.18;64.15
74403;BME280;62837;51.082;13.744;2023-07-30T06:34:44;99811.99;;;21.20;64.16
74403;BME280;62837;51.082;13.744;2023-07-30T06:37:16;99814.52;;;21.19;64.71
74403;BME280;62837;51.082;13.744;2023-07-30T06:39:47;99814.04;;;21.16;64.83
74403;BME280;62837;51.082;13.744;2023-07-30T06:42:18;99818.28;;;21.19;65.08
74403;BME280;62837;51.082;13.744;2023-07-30T06:44:49;99813.69;;;21.24;64.96
74403;BME280;62837;51.082;13.744;2023-07-30T06:47:20;99815.20;;;21.32;64.80
74403;BME280;62837;51.082;13.744;2023-07-30T06:49:51;99815.91;;;21.42;64.49
74403;BME280;62837;51.082;13.744;2023-07-30T06:52:23;99816.96;;;21.51;64.41
74403;BME280;62837;51.082;13.744;2023-07-30T06:54:54;99820.21;;;21.61;64.09
74403;BME280;62837;51.082;13.744;2023-07-30T06:57:25;99818.75;;;21.72;63.81
74403;BME280;62837;51.082;13.744;2023-07-30T06:59:56;99819.10;;;21.80;63.69
74403;BME280;62837;51.082;13.744;2023-07-30T07:02:28;99824.98;;;21.93;63.46
74403;BME280;62837;51.082;13.744;2023-07-30T07:05:00;99824.48;;;22.10;63.49
74403;BME280;62837;51.082;13.744;2023-07-30T07:07:31;99822.20;;;22.24;63.23
74403;BME280;62837;51.082;13.744;2023-07-30T07:10:03;99824.95;;;22.37;62.75
74403;BME280;62837;51.082;13.744;2023-07-30T07:12:34;99821.93;;;22.50;62.26
74403;BME280;62837;51.082;13.744;2023-07-30T07:15:07;99825.13;;;22.57;61.95
74403;BME280;62837;51.082;13.744;2023-07-30T07:17:38;99826.75;;;22.70;62.02
74403;BME280;62837;51.082;13.744;2023-07-30T07:20:10;99833.92;;;22.77;61.71
74403;BME280;62837;51.082;13.744;2023-07-30T07:22:41;99832.23;;;22.77;61.52
74403;BME280;62837;51.082;13.744;2023-07-30T07:25:12;99835.09;;;22.75;61.56
74403;BME280;62837;51.082;13.744;2023-07-30T07:27:44;99836.45;;;22.76;61.65
74403;BME280;62837;51.082;13.744;2023-07-30T07:30:15;99836.41;;;22.78;61.53
74403;BME280;62837;51.082;13.744;2023-07-30T07:32:46;99835.90;;;22.82;61.45
74403;BME280;62837;51.082;13.744;2023-07-30T07:35:21;99837.73;;;22.97;61.53
74403;BME280;62837;51.082;13.744;2023-07-30T07:37:52;99837.13;;;23.14;61.31
74403;BME280;62837;51.082;13.744;2023-07-30T07:40:23;99839.51;;;23.41;61.11
74403;BME280;62837;51.082;13.744;2023-07-30T07:42:56;99839.61;;;23.55;60.61
74403;BME280;62837;51.082;13.744;2023-07-30T07:45:27;99843.60;;;23.60;60.11
74403;BME280;62837;51.082;13.744;2023-07-30T07:47:58;99841.02;;;23.57;60.03
74403;BME280;62837;51.082;13.744;2023-07-30T07:50:29;99841.73;;;23.47;60.26
74403;BME280;62837;51.082;13.744;2023-07-30T07:53:01;99840.78;;;23.46;60.73
74403;BME280;62837;51.082;13.744;2023-07-30T07:55:32;99837.23;;;23.53;61.08
74403;BME280;62837;51.082;13.744;2023-07-30T07:58:03;99833.11;;;23.61;61.19
74403;BME280;62837;51.082;13.744;2023-07-30T08:00:34;99829.92;;;23.68;60.94
74403;BME280;62837;51.082;13.744;2023-07-30T08:03:05;99830.41;;;23.76;60.36
74403;BME280;62837;51.082;13.744;2023-07-30T08:05:37;99825.81;;;24.04;60.72
74403;BME280;62837;51.082;13.744;2023-07-30T08:08:08;99821.63;;;24.44;59.59
74403;BME280;62837;51.082;13.744;2023-07-30T08:10:41;99820.31;;;24.81;59.25
74403;BME280;62837;51.082;13.744;2023-07-30T08:13:14;99820.45;;;25.13;59.31
74403;BME280;62837;51.082;13.744;2023-07-30T08:15:45;99819.98;;;25.45;58.12
74403;BME280;62837;51.082;13.744;2023-07-30T08:18:16;99816.95;;;25.78;57.52
74403;BME280;62837;51.082;13.744;2023-07-30T08:20:48;99815.13;;;26.08;56.42
74403;BME280;62837;51.082;13.744;2023-07-30T08:23:20;99812.39;;;26.36;55.72
74403;BME280;62837;51.082;13.744;2023-07-30T08:25:51;99814.67;;;26.48;53.93
74403;BME280;62837;51.082;13.744;2023-07-30T08:28:22;99814.95;;;26.56;54.38
74403;BME280;62837;51.082;13.744;2023-07-30T08:30:57;99817.30;;;26.63;53.92
74403;BME280;62837;51.082;13.744;2023-07-30T08:33:30;99812.95;;;26.74;53.73
74403;BME280;62837;51.082;13.744;2023-07-30T08:36:01;99809.79;;;26.88;53.47
74403;BME280;62837;51.082;13.744;2023-07-30T08:38:32;99804.88;;;26.89;52.82
74403;BME280;62837;51.082;13.744;2023-07-30T08:41:03;99809.80;;;26.94;52.43
74403;BME280;62837;51.082;13.744;2023-07-30T08:43:35;99807.40;;;26.96;52.16
74403;BME280;62837;51.082;13.744;2023-07-30T08:46:07;99802.65;;;26.80;52.45
74403;BME280;62837;51.082;13.744;2023-07-30T08:48:39;99807.80;;;26.52;52.00
74403;BME280;62837;51.082;13.744;2023-07-30T08:51:14;99808.56;;;26.24;51.94
74403;BME280;62837;51.082;13.744;2023-07-30T08:53:46;99802.59;;;26.15;52.82
74403;BME280;62837;51.082;13.744;2023-07-30T08:56:18;99801.88;;;26.29;53.09
74403;BME280;62837;51.082;13.744;2023-07-30T08:58:51;99800.08;;;26.47;53.00
74403;BME280;62837;51.082;13.744;2023-07-30T09:01:30;99793.70;;;26.57;53.18
74403;BME280;62837;51.082;13.744;2023-07-30T09:04:07;99799.75;;;26.58;52.49
74403;BME280;62837;51.082;13.744;2023-07-30T09:06:38;99799.94;;;26.43;52.08
74403;BME280;62837;51.082;13.744;2023-07-30T09:09:10;99800.58;;;26.24;52.35
74403;BME280;62837;51.082;13.744;2023-07-30T09:11:42;99799.85;;;26.05;52.75
74403;BME280;62837;51.082;13.744;2023-07-30T09:14:14;99796.37;;;25.94;53.16
74403;BME280;62837;51.082;13.744;2023-07-30T09:16:45;99798.02;;;25.92;53.14
74403;BME280;62837;51.082;13.744;2023-07-30T09:19:19;99794.11;;;25.98;53.29
74403;BME280;62837;51.082;13.744;2023-07-30T09:21:51;99797.75;;;26.18;53.24
74403;BME280;62837;51.082;13.744;2023-07-30T09:24:23;99797.63;;;26.35;53.10
74403;BME280;62837;51.082;13.744;2023-07-30T09:26:55;99797.16;;;26.41;53.26
74403;BME280;62837;51.082;13.744;2023-07-30T09:29:27;99797.95;;;26.39;53.03
74403;BME280;62837;51.082;13.744;2023-07-30T09:31:58;99800.48;;;26.32;52.92
74403;BME280;62837;51.082;13.744;2023-07-30T09:34:29;99803.20;;;26.21;52.51
74403;BME280;62837;51.082;13.744;2023-07-30T09:37:01;99804.11;;;26.13;52.59
74403;BME280;62837;51.082;13.744;2023-07-30T09:39:32;99804.23;;;26.06;52.96
74403;BME280;62837;51.082;13.744;2023-07-30T09:42:04;99803.31;;;26.04;52.95
74403;BME280;62837;51.082;13.744;2023-07-30T09:44:37;99805.16;;;26.04;53.24
74403;BME280;62837;51.082;13.744;2023-07-30T09:47:11;99802.52;;;26.04;53.17
74403;BME280;62837;51.082;13.744;2023-07-30T09:49:43;99800.86;;;26.02;52.88
74403;BME280;62837;51.082;13.744;2023-07-30T09:52:15;99802.64;;;26.03;52.80
74403;BME280;62837;51.082;13.744;2023-07-30T09:54:47;99803.50;;;26.07;52.32
74403;BME280;62837;51.082;13.744;2023-07-30T09:57:21;99802.80;;;26.07;51.97
74403;BME280;62837;51.082;13.744;2023-07-30T09:59:53;99798.41;;;26.06;52.18
74403;BME280;62837;51.082;13.744;2023-07-30T10:02:25;99804.16;;;26.07;52.35
74403;BME280;62837;51.082;13.744;2023-07-30T10:05:02;99806.80;;;26.06;52.03
74403;BME280;62837;51.082;13.744;2023-07-30T10:07:35;99809.20;;;26.01;51.82
74403;BME280;62837;51.082;13.744;2023-07-30T10:10:09;99805.73;;;25.96;52.31
74403;BME280;62837;51.082;13.744;2023-07-30T10:12:41;99806.80;;;25.97;52.15
74403;BME280;62837;51.082;13.744;2023-07-30T10:15:14;99810.52;;;25.84;51.95
74403;BME280;62837;51.082;13.744;2023-07-30T10:17:49;99809.45;;;25.69;51.89
74403;BME280;62837;51.082;13.744;2023-07-30T10:20:23;99807.98;;;25.59;52.41
74403;BME280;62837;51.082;13.744;2023-07-30T10:22:55;99804.13;;;25.45;52.72
74403;BME280;62837;51.082;13.744;2023-07-30T10:25:29;99807.31;;;25.35;53.27
74403;BME280;62837;51.082;13.744;2023-07-30T10:28:01;99810.52;;;25.31;53.39
74403;BME280;62837;51.082;13.744;2023-07-30T10:30:33;99815.39;;;25.33;53.70
74403;BME280;62837;51.082;13.744;2023-07-30T10:33:08;99803.27;;;25.34;53.31
74403;BME280;62837;51.082;13.744;2023-07-30T10:35:42;99804.93;;;25.28;52.88
74403;BME280;62837;51.082;13.744;2023-07-30T10:38:21;99804.05;;;25.24;53.21
74403;BME280;62837;51.082;13.744;2023-07-30T10:41:05;99803.61;;;25.19;53.07
74403;BME280;62837;51.082;13.744;2023-07-30T10:43:40;99799.23;;;25.17;53.55
74403;BME280;62837;51.082;13.744;2023-07-30T10:46:12;99799.13;;;25.16;53.30
74403;BME280;62837;51.082;13.744;2023-07-30T10:48:45;99794.52;;;25.11;53.77
74403;BME280;62837;51.082;13.744;2023-07-30T10:51:18;99797.90;;;25.11;53.76
74403;BME280;62837;51.082;13.744;2023-07-30T10:53:51;99798.14;;;25.15;53.47
74403;BME280;62837;51.082;13.744;2023-07-30T10:56:24;99795.95;;;25.30;53.52
74403;BME280;62837;51.082;13.744;2023-07-30T10:58:56;99795.45;;;25.45;52.63
74403;BME280;62837;51.082;13.744;2023-07-30T11:01:28;99796.39;;;25.63;52.08
74403;BME280;62837;51.082;13.744;2023-07-30T11:03:59;99793.34;;;25.87;52.17
74403;BME280;62837;51.082;13.744;2023-07-30T11:06:31;99795.90;;;26.04;51.91
74403;BME280;62837;51.082;13.744;2023-07-30T11:09:02;99792.41;;;26.21;50.64
74403;BME280;62837;51.082;13.744;2023-07-30T11:11:34;99787.65;;;26.35;49.76
74403;BME280;62837;51.082;13.744;2023-07-30T11:14:05;99792.33;;;26.41;48.97
74403;BME280;62837;51.082;13.744;2023-07-30T11:16:51;99790.90;;;26.42;46.24
74403;BME280;62837;51.082;13.744;2023-07-30T11:19:22;99782.33;;;26.24;46.29
74403;BME280;62837;51.082;13.744;2023-07-30T11:21:54;99780.20;;;26.23;46.43
74403;BME280;62837;51.082;13.744;2023-07-30T11:24:36;99776.36;;;26.16;46.26
74403;BME280;62837;51.082;13.744;2023-07-30T11:27:08;99777.45;;;26.22;46.37
74403;BME280;62837;51.082;13.744;2023-07-30T11:29:40;99771.45;;;26.24;46.68
74403;BME280;62837;51.082;13.744;2023-07-30T11:32:11;99765.07;;;26.28;46.96
74403;BME280;62837;51.082;13.744;2023-07-30T11:34:43;99758.11;;;26.37;46.92
74403;BME280;62837;51.082;13.744;2023-07-30T11:37:14;99755.48;;;26.44;47.10
74403;BME280;62837;51.082;13.744;2023-07-30T11:39:46;99757.77;;;26.57;46.47
74403;BME280;62837;51.082;13.744;2023-07-30T11:42:17;99754.98;;;26.72;46.51
74403;BME280;62837;51.082;13.744;2023-07-30T11:44:49;99749.35;;;26.84;45.84
74403;BME280;62837;51.082;13.744;2023-07-30T11:47:23;99753.36;;;26.89;46.09
74403;BME280;62837;51.082;13.744;2023-07-30T11:49:58;99751.11;;;27.01;45.77
74403;BME280;62837;51.082;13.744;2023-07-30T11:52:29;99750.45;;;27.07;44.49
74403;BME280;62837;51.082;13.744;2023-07-30T11:55:04;99738.59;;;27.13;44.73
74403;BME280;62837;51.082;13.744;2023-07-30T11:57:37;99739.52;;;27.16;44.71
74403;BME280;62837;51.082;13.744;2023-07-30T12:00:11;99740.11;;;27.12;44.23
74403;BME280;62837;51.082;13.744;2023-07-30T12:02:43;99745.17;;;27.17;43.73
74403;BME280;62837;51.082;13.744;2023-07-30T12:05:17;99739.45;;;27.25;43.86
74403;BME280;62837;51.082;13.744;2023-07-30T12:07:49;99734.15;;;27.27;43.40
74403;BME280;62837;51.082;13.744;2023-07-30T12:10:21;99733.23;;;27.23;42.83
74403;BME280;62837;51.082;13.744;2023-07-30T12:12:52;99730.25;;;27.26;42.56
74403;BME280;62837;51.082;13.744;2023-07-30T12:15:23;99727.69;;;27.27;41.80
74403;BME280;62837;51.082;13.744;2023-07-30T12:17:54;99720.95;;;27.30;41.82
74403;BME280;62837;51.082;13.744;2023-07-30T12:20:29;99716.99;;;27.29;41.55
74403;BME280;62837;51.082;13.744;2023-07-30T12:23:01;99716.90;;;27.29;41.98
74403;BME280;62837;51.082;13.744;2023-07-30T12:25:32;99711.44;;;27.31;41.65
74403;BME280;62837;51.082;13.744;2023-07-30T12:28:04;99715.19;;;27.33;41.79
74403;BME280;62837;51.082;13.744;2023-07-30T12:30:35;99714.97;;;27.37;41.76
74403;BME280;62837;51.082;13.744;2023-07-30T12:33:07;99708.30;;;27.38;41.21
74403;BME280;62837;51.082;13.744;2023-07-30T12:35:38;99709.02;;;27.39;40.86
74403;BME280;62837;51.082;13.744;2023-07-30T12:38:09;99706.57;;;27.36;40.35
74403;BME280;62837;51.082;13.744;2023-07-30T12:40:41;99700.40;;;27.30;40.06
74403;BME280;62837;51.082;13.744;2023-07-30T12:43:12;99695.70;;;27.21;40.06
74403;BME280;62837;51.082;13.744;2023-07-30T12:45:43;99700.75;;;27.11;40.20
74403;BME280;62837;51.082;13.744;2023-07-30T12:48:14;99696.48;;;27.04;40.42
74403;BME280;62837;51.082;13.744;2023-07-30T12:50:46;99703.92;;;26.92;40.45
74403;BME280;62837;51.082;13.744;2023-07-30T12:53:15;99704.68;;;26.77;40.28
74403;BME280;62837;51.082;13.744;2023-07-30T12:55:47;99702.56;;;26.69;40.86
74403;BME280;62837;51.082;13.744;2023-07-30T12:58:18;99703.83;;;26.67;41.07
74403;BME280;62837;51.082;13.744;2023-07-30T13:00:49;99704.10;;;26.69;41.69
74403;BME280;62837;51.082;13.744;2023-07-30T13:03:20;99703.48;;;26.71;41.93
74403;BME280;62837;51.082;13.744;2023-07-30T13:05:52;99704.79;;;26.80;41.88
74403;BME280;62837;51.082;13.744;2023-07-30T13:08:23;99702.86;;;26.86;42.49
74403;BME280;62837;51.082;13.744;2023-07-30T13:10:54;99694.58;;;26.87;42.32
74403;BME280;62837;51.082;13.744;2023-07-30T13:13:25;99701.73;;;26.81;41.76